Météo Nord-Pas-de-Calais   La météo au plus près de chez vous

Station météorologique

Observations météo à Chastreix (63098)

63098001 1385 m Dernier relevé à 17:00
22.7°C
Humidité 44 % Vent 9 km/h

Journée consultée

Samedi 5 Septembre 2026

Synthèse de la journée

Périodes de référence en UTC

Température maximale

23.2°C

à 16:54

06h 06h

Température minimale

14.3°C

à 05:00

18h 18h

Rafale maximale

31 km/h

à 15:00

00h 00h

Précipitations

0 mm

Cumul quotidien

06h 06h

Ensoleillement

8h 39 mins

Durée quotidienne

00h 00h

Graphiques de la journée

Heure locale Réduire

Données détaillées

Relevés météo

Pas de 6 minutes Afficher les relevés infra-horaires
Relevés météo détaillés à Chastreix pour le Samedi 5 Septembre 2026
Heure Température °C Point de rosée °C Humidité % Vent moyen (raf.), km/h Précipitations mm Hauteur neige cm Ensoleillement min Rayonnement global W/m²
17:00 22.7 °C 9.5 °C 43 % 10 km/h (21 km/h) 0 mm0 mm 0 cm 6 min 189.3 W/m²
16:54 23.2 °C 9.2 °C 41 % 9 km/h (18 km/h) 0 mm0 mm 0 cm 6 min 205.1 W/m²
16:48 23 °C 9.7 °C 43 % 10 km/h (22 km/h) 0 mm0 mm 0 cm 6 min 212.6 W/m²
16:42 23 °C 9.4 °C 42 % 12 km/h (22 km/h) 0 mm0 mm 0 cm 6 min 217.3 W/m²
16:36 23 °C 9.4 °C 42 % 10 km/h (21 km/h) 0 mm0 mm 0 cm 6 min 220.2 W/m²
16:30 22.5 °C 8.9 °C 42 % 7 km/h (19 km/h) 0 mm0 mm 0 cm 6 min 226.9 W/m²
16:24 22.6 °C 9 °C 42 % 11 km/h (21 km/h) 0 mm0 mm 0 cm 6 min 230.4 W/m²
16:18 22.9 °C 10.3 °C 45 % 13 km/h (26 km/h) 0 mm0 mm 0 cm 6 min 232.1 W/m²
16:12 22.9 °C 9.3 °C 42 % 15 km/h (30 km/h) 0 mm0 mm 0 cm 6 min 230.7 W/m²
16:06 23.1 °C 10.5 °C 45 % 10 km/h (30 km/h) 0 mm0 mm 0 cm 6 min 229.5 W/m²
16:00 22.6 °C 9.7 °C 44 % 9 km/h (23 km/h) 0 mm0 mm 0 cm 6 min 236.8 W/m²
15:54 22.1 °C 8.9 °C 43 % 9 km/h (23 km/h) 0 mm0 mm 0 cm 6 min 246.8 W/m²
15:48 21.5 °C 7.7 °C 41 % 11 km/h (19 km/h) 0 mm0 mm 0 cm 6 min 255.7 W/m²
15:42 22.1 °C 8.9 °C 43 % 11 km/h (19 km/h) 0 mm0 mm 0 cm 6 min 261.6 W/m²
15:36 22 °C 9.2 °C 44 % 11 km/h (21 km/h) 0 mm0 mm 0 cm 6 min 264.1 W/m²
15:30 21.9 °C 9.4 °C 45 % 12 km/h (21 km/h) 0 mm0 mm 0 cm 6 min 269.1 W/m²
15:24 21.5 °C 8.4 °C 43 % 13 km/h (26 km/h) 0 mm0 mm 0 cm 6 min 271.4 W/m²
15:18 22 °C 9.2 °C 44 % 12 km/h (23 km/h) 0 mm0 mm 0 cm 6 min 274.1 W/m²
15:12 21.5 °C 9.1 °C 45 % 15 km/h (26 km/h) 0 mm0 mm 0 cm 6 min 278.6 W/m²
15:06 21.6 °C 9.5 °C 46 % 16 km/h (30 km/h) 0 mm0 mm 0 cm 6 min 279.8 W/m²
15:00 21.8 °C 10 °C 47 % 11 km/h (31 km/h) 0 mm0 mm 0 cm 6 min 282.5 W/m²
14:54 21.1 °C 10 °C 49 % 8 km/h (15 km/h) 0 mm0 mm 0 cm 6 min 272.6 W/m²
14:48 21 °C 10.2 °C 50 % 12 km/h (21 km/h) 0 mm0 mm 0 cm 6 min 278.1 W/m²
14:42 21.2 °C 10.1 °C 49 % 10 km/h (21 km/h) 0 mm0 mm 0 cm 6 min 279 W/m²
14:36 21.5 °C 10 °C 48 % 11 km/h (23 km/h) 0 mm0 mm 0 cm 6 min 283.9 W/m²
14:30 21.6 °C 10.4 °C 49 % 13 km/h (23 km/h) 0 mm0 mm 0 cm 6 min 278.3 W/m²
14:24 21.5 °C 11.2 °C 52 % 11 km/h (24 km/h) 0 mm0 mm 0 cm 6 min 276 W/m²
14:18 21.3 °C 9.5 °C 47 % 12 km/h (26 km/h) 0 mm0 mm 0 cm 6 min 283.4 W/m²
14:12 20.9 °C 10.1 °C 50 % 13 km/h (26 km/h) 0 mm0 mm 0 cm 6 min 288.6 W/m²
14:06 21.1 °C 10 °C 49 % 13 km/h (23 km/h) 0 mm0 mm 0 cm 6 min 288.4 W/m²
14:00 20.7 °C 9.3 °C 48 % 15 km/h (24 km/h) 0 mm0 mm 0 cm 6 min 285.2 W/m²
13:54 21.2 °C 8.8 °C 45 % 15 km/h (27 km/h) 0 mm0 mm 0 cm 6 min 285.5 W/m²
13:48 20.9 °C 9.8 °C 49 % 14 km/h (29 km/h) 0 mm0 mm 0 cm 6 min 296.1 W/m²
13:42 21.5 °C 10.6 °C 50 % 13 km/h (29 km/h) 0 mm0 mm 0 cm 6 min 292.9 W/m²
13:36 21.6 °C 11.3 °C 52 % 10 km/h (17 km/h) 0 mm0 mm 0 cm 6 min 294.8 W/m²
13:30 20.8 °C 9.4 °C 48 % 11 km/h (21 km/h) 0 mm0 mm 0 cm 6 min 294.8 W/m²
13:24 21.5 °C 10.9 °C 51 % 12 km/h (23 km/h) 0 mm0 mm 0 cm 6 min 292.5 W/m²
13:18 21.2 °C 10.4 °C 50 % 13 km/h (25 km/h) 0 mm0 mm 0 cm 6 min 287.9 W/m²
13:12 20.9 °C 9.5 °C 48 % 13 km/h (25 km/h) 0 mm0 mm 0 cm 6 min 273.5 W/m²
13:06 21 °C 10.2 °C 50 % 12 km/h (19 km/h) 0 mm0 mm 0 cm 6 min 277.3 W/m²
13:00 20.9 °C 9.5 °C 48 % 10 km/h (18 km/h) 0 mm0 mm 0 cm 6 min 266.6 W/m²
12:54 21.1 °C 10.3 °C 50 % 10 km/h (18 km/h) 0 mm0 mm 0 cm 6 min 292.8 W/m²
12:48 20.8 °C 10 °C 50 % 10 km/h (17 km/h) 0 mm0 mm 0 cm 6 min 271.4 W/m²
12:42 20.8 °C 9.7 °C 49 % 9 km/h (18 km/h) 0 mm0 mm 0 cm 6 min 271.1 W/m²
12:36 20.8 °C 10 °C 50 % 6 km/h (18 km/h) 0 mm0 mm 0 cm 6 min 272.7 W/m²
12:30 20.6 °C 10.4 °C 52 % 5 km/h (13 km/h) 0 mm0 mm 0 cm 6 min 265.1 W/m²
12:24 20.1 °C 9.3 °C 50 % 8 km/h (16 km/h) 0 mm0 mm 0 cm 6 min 269.6 W/m²
12:18 20.3 °C 10.1 °C 52 % 11 km/h (21 km/h) 0 mm0 mm 0 cm 6 min 264.6 W/m²
12:12 20 °C 8.6 °C 48 % 9 km/h (20 km/h) 0 mm0 mm 0 cm 6 min 267.1 W/m²
12:06 20.2 °C 10.6 °C 54 % 8 km/h (17 km/h) 0 mm0 mm 0 cm 6 min 262.8 W/m²
12:00 20.1 °C 10.5 °C 54 % 9 km/h (17 km/h) 0 mm0 mm 0 cm 6 min 264.7 W/m²
11:54 19.8 °C 9.9 °C 53 % 6 km/h (15 km/h) 0 mm0 mm 0 cm 6 min 260.1 W/m²
11:48 19.7 °C 9.6 °C 52 % 7 km/h (14 km/h) 0 mm0 mm 0 cm 6 min 255 W/m²
11:42 19.4 °C 9.6 °C 53 % 10 km/h (17 km/h) 0 mm0 mm 0 cm 6 min 250.5 W/m²
11:36 19.4 °C 9.8 °C 54 % 10 km/h (17 km/h) 0 mm0 mm 0 cm 6 min 245.9 W/m²
11:30 19.3 °C 9.8 °C 54 % 9 km/h (16 km/h) 0 mm0 mm 0 cm 6 min 240.8 W/m²
11:24 19.3 °C 10.6 °C 57 % 10 km/h (21 km/h) 0 mm0 mm 0 cm 6 min 232.3 W/m²
11:18 19.1 °C 10.4 °C 57 % 10 km/h (21 km/h) 0 mm0 mm 0 cm 6 min 233.6 W/m²
11:12 19.2 °C 10.7 °C 58 % 9 km/h (17 km/h) 0 mm0 mm 0 cm 6 min 228.9 W/m²
11:06 19.1 °C 10.6 °C 58 % 7 km/h (16 km/h) 0 mm0 mm 0 cm 6 min 224.2 W/m²
11:00 18.6 °C 9.6 °C 56 % 8 km/h (15 km/h) 0 mm0 mm 0 cm 6 min 219.2 W/m²
10:54 18.7 °C 10 °C 57 % 9 km/h (15 km/h) 0 mm0 mm 0 cm 6 min 213.9 W/m²
10:48 18.4 °C 10 °C 58 % 9 km/h (15 km/h) 0 mm0 mm 0 cm 6 min 208.6 W/m²
10:42 18.4 °C 10.7 °C 61 % 9 km/h (15 km/h) 0 mm0 mm 0 cm 6 min 203 W/m²
10:36 18.5 °C 11.1 °C 62 % 8 km/h (15 km/h) 0 mm0 mm 0 cm 6 min 196.5 W/m²
10:30 18.3 °C 10.4 °C 60 % 8 km/h (14 km/h) 0 mm0 mm 0 cm 6 min 190.8 W/m²
10:24 18.1 °C 10.2 °C 60 % 9 km/h (14 km/h) 0 mm0 mm 0 cm 6 min 184.5 W/m²
10:18 18.1 °C 9.4 °C 57 % 11 km/h (18 km/h) 0 mm0 mm 0 cm 6 min 179.3 W/m²
10:12 17.9 °C 9.3 °C 57 % 12 km/h (21 km/h) 0 mm0 mm 0 cm 6 min 169.9 W/m²
10:06 17.6 °C 8.7 °C 56 % 13 km/h (21 km/h) 0 mm0 mm 0 cm 6 min 164.1 W/m²
10:00 17.6 °C 8.4 °C 55 % 13 km/h (21 km/h) 0 mm0 mm 0 cm 6 min 155.5 W/m²
09:54 17.7 °C 8.5 °C 55 % 11 km/h (17 km/h) 0 mm0 mm 0 cm 6 min 148.2 W/m²
09:48 17.9 °C 9 °C 56 % 9 km/h (15 km/h) 0 mm0 mm 0 cm 6 min 141.1 W/m²
09:42 17.9 °C 9 °C 56 % 6 km/h (12 km/h) 0 mm0 mm 0 cm 6 min 138.2 W/m²
09:36 17.9 °C 8.2 °C 53 % 6 km/h (12 km/h) 0 mm0 mm 0 cm 6 min 132.2 W/m²
09:30 17.5 °C 7.5 °C 52 % 8 km/h (14 km/h) 0 mm0 mm 0 cm 6 min 125.7 W/m²
09:24 17.5 °C 7.2 °C 51 % 6 km/h (14 km/h) 0 mm0 mm 0 cm 6 min 118.4 W/m²
09:18 17.6 °C 7.9 °C 53 % 6 km/h (9 km/h) 0 mm0 mm 0 cm 6 min 111.2 W/m²
09:12 17.4 °C 7.7 °C 53 % 6 km/h (9 km/h) 0 mm0 mm 0 cm 6 min 104.2 W/m²
09:06 17.4 °C 7.4 °C 52 % 5 km/h (8 km/h) 0 mm0 mm 0 cm 6 min 98.1 W/m²
09:00 17.6 °C 7.6 °C 52 % 4 km/h (8 km/h) 0 mm0 mm 0 cm 6 min 89.6 W/m²
08:54 17.3 °C 8.4 °C 56 % 4 km/h (11 km/h) 0 mm0 mm 0 cm 6 min 77.7 W/m²
08:48 17.1 °C 8 °C 55 % 5 km/h (10 km/h) 0 mm0 mm 0 cm 6 min 70.6 W/m²
08:42 16.9 °C 8.3 °C 57 % 6 km/h (10 km/h) 0 mm0 mm 0 cm 6 min 58.7 W/m²
08:36 16.8 °C 8.7 °C 59 % 6 km/h (11 km/h) 0 mm0 mm 0 cm 6 min 61.9 W/m²
08:30 16.4 °C 8.9 °C 61 % 5 km/h (9 km/h) 0 mm0 mm 0 cm 5 min 56.4 W/m²
08:24 16.2 °C 8.2 °C 59 % 6 km/h (11 km/h) 0 mm0 mm 0 cm 3 min 40.9 W/m²
08:18 15.9 °C 7.6 °C 58 % 6 km/h (11 km/h) 0 mm0 mm 0 cm 1 min 21.9 W/m²
08:12 15.7 °C 6.4 °C 54 % 6 km/h (13 km/h) 0 mm0 mm 0 cm 0 min 13.1 W/m²
08:06 15.9 °C 6 °C 52 % 8 km/h (13 km/h) 0 mm0 mm 0 cm 0 min 10.5 W/m²
08:00 15.8 °C 4.8 °C 48 % 8 km/h (12 km/h) 0 mm0 mm 0 cm 0 min 9 W/m²
07:54 16 °C 3.1 °C 42 % 7 km/h (11 km/h) 0 mm0 mm 0 cm 0 min 7.8 W/m²
07:48 16.2 °C 0.7 °C 35 % 7 km/h (10 km/h) 0 mm0 mm 0 cm 0 min 7.3 W/m²
07:42 16.4 °C -2.2 °C 28 % 7 km/h (10 km/h) 0 mm0 mm 0 cm 0 min 5.7 W/m²
07:36 16.2 °C -0.5 °C 32 % 8 km/h (11 km/h) 0 mm0 mm 0 cm 0 min 3.1 W/m²
07:30 15.9 °C 1.2 °C 37 % 8 km/h (10 km/h) 0 mm0 mm 0 cm 0 min 0 W/m²
07:24 15.9 °C 2.7 °C 41 % 8 km/h (10 km/h) 0 mm0 mm 0 cm 0 min 0 W/m²
07:18 15.8 °C 2.9 °C 42 % 8 km/h (11 km/h) 0 mm0 mm 0 cm 0 min 0 W/m²
07:12 15.9 °C 4 °C 45 % 9 km/h (11 km/h) 0 mm0 mm 0 cm 0 min 0 W/m²
07:06 15.4 °C 5.9 °C 53 % 7 km/h (10 km/h) 0 mm0 mm 0 cm 0 min 0 W/m²
07:00 15.3 °C 6.8 °C 57 % 6 km/h (9 km/h) 0 mm0 mm 0 cm 0 min 0 W/m²
06:54 15.3 °C 7.3 °C 59 % 6 km/h (8 km/h) 0 mm0 mm 0 cm 0 min 0 W/m²
06:48 15.2 °C 7.7 °C 61 % 5 km/h (8 km/h) 0 mm0 mm 0 cm 0 min 0 W/m²
06:42 15.4 °C 8.6 °C 64 % 5 km/h (8 km/h) 0 mm0 mm 0 cm 0 min 0 W/m²
06:36 15.4 °C 8.8 °C 65 % 5 km/h (8 km/h) 0 mm0 mm 0 cm 0 min 0 W/m²
06:30 15.3 °C 8.5 °C 64 % 5 km/h (8 km/h) 0 mm0 mm 0 cm 0 min 0 W/m²
06:24 15.3 °C 8.8 °C 65 % 3 km/h (7 km/h) 0 mm0 mm 0 cm 0 min 0 W/m²
06:18 15.4 °C 8.6 °C 64 % 4 km/h (7 km/h) 0 mm0 mm 0 cm 0 min 0 W/m²
06:12 15.4 °C 8.6 °C 64 % 5 km/h (9 km/h) 0 mm0 mm 0 cm 0 min 0 W/m²
06:06 15.3 °C 8.3 °C 63 % 6 km/h (9 km/h) 0 mm0 mm 0 cm 0 min 0 W/m²
06:00 15.2 °C 8.2 °C 63 % 7 km/h (11 km/h) 0 mm0 mm 0 cm 0 min 0 W/m²
05:54 15.3 °C 8.1 °C 62 % 6 km/h (11 km/h) 0 mm0 mm 0 cm 0 min 0 W/m²
05:48 15.4 °C 7.9 °C 61 % 5 km/h (9 km/h) 0 mm0 mm 0 cm 0 min 0 W/m²
05:42 15.6 °C 8.1 °C 61 % 5 km/h (8 km/h) 0 mm0 mm 0 cm 0 min 0 W/m²
05:36 15.6 °C 8.1 °C 61 % 4 km/h (6 km/h) 0 mm0 mm 0 cm 0 min 0 W/m²
05:30 15.6 °C 8.1 °C 61 % 5 km/h (8 km/h) 0 mm0 mm 0 cm 0 min 0 W/m²
05:24 15.6 °C 8.1 °C 61 % 5 km/h (8 km/h) 0 mm0 mm 0 cm 0 min 0 W/m²
05:18 15.6 °C 8.1 °C 61 % 5 km/h (7 km/h) 0 mm0 mm 0 cm 0 min 0 W/m²
05:12 15.7 °C 8.2 °C 61 % 5 km/h (7 km/h) 0 mm0 mm 0 cm 0 min 0 W/m²
05:06 15.8 °C 8 °C 60 % 5 km/h (8 km/h) 0 mm0 mm 0 cm 0 min 0 W/m²
05:00 15.9 °C 8.4 °C 61 % 5 km/h (8 km/h) 0 mm0 mm 0 cm 0 min 0 W/m²
04:54 15.6 °C 8.1 °C 61 % 4 km/h (8 km/h) 0 mm0 mm 0 cm 0 min 0 W/m²
04:48 15.5 °C 7.8 °C 60 % 2 km/h (5 km/h) 0 mm0 mm 0 cm 0 min 0 W/m²
04:42 15.5 °C 7.8 °C 60 % 3 km/h (8 km/h) 0 mm0 mm 0 cm 0 min 0 W/m²
04:36 15.7 °C 8 °C 60 % 4 km/h (9 km/h) 0 mm0 mm 0 cm 0 min 0 W/m²
04:30 16 °C 8.2 °C 60 % 4 km/h (9 km/h) 0 mm0 mm 0 cm 0 min 0 W/m²
04:24 15.8 °C 8.3 °C 61 % 5 km/h (9 km/h) 0 mm0 mm 0 cm 0 min 0 W/m²
04:18 15 °C 7.8 °C 62 % 7 km/h (12 km/h) 0 mm0 mm 0 cm 0 min 0 W/m²
04:12 14.8 °C 7.6 °C 62 % 7 km/h (11 km/h) 0 mm0 mm 0 cm 0 min 0 W/m²
04:06 14.5 °C 7.3 °C 62 % 8 km/h (12 km/h) 0 mm0 mm 0 cm 0 min 0 W/m²
04:00 14.6 °C 7.2 °C 61 % 8 km/h (12 km/h) 0 mm0 mm 0 cm 0 min 0 W/m²
03:54 14.9 °C 7 °C 59 % 8 km/h (12 km/h) 0 mm0 mm 0 cm 0 min 0 W/m²
03:48 15.3 °C 7.1 °C 58 % 7 km/h (12 km/h) 0 mm0 mm 0 cm 0 min 0 W/m²
03:42 15.5 °C 7.3 °C 58 % 6 km/h (12 km/h) 0 mm0 mm 0 cm 0 min 0 W/m²
03:36 15.9 °C 7.4 °C 57 % 6 km/h (10 km/h) 0 mm0 mm 0 cm 0 min 0 W/m²
03:30 15.9 °C 7.1 °C 56 % 6 km/h (10 km/h) 0 mm0 mm 0 cm 0 min 0 W/m²
03:24 16.2 °C 7.4 °C 56 % 4 km/h (8 km/h) 0 mm0 mm 0 cm 0 min 0 W/m²
03:18 16.4 °C 7.6 °C 56 % 3 km/h (8 km/h) 0 mm0 mm 0 cm 0 min 0 W/m²
03:12 16.3 °C 7.2 °C 55 % 3 km/h (5 km/h) 0 mm0 mm 0 cm 0 min 0 W/m²
03:06 16.9 °C 8.1 °C 56 % 4 km/h (8 km/h) 0 mm0 mm 0 cm 0 min 0 W/m²
03:00 16.7 °C 7.9 °C 56 % 4 km/h (7 km/h) 0 mm0 mm 0 cm 0 min 0 W/m²
02:54 16.5 °C 7.9 °C 57 % 3 km/h (6 km/h) 0 mm0 mm 0 cm 0 min 0 W/m²
02:48 16.1 °C 7.6 °C 57 % 4 km/h (7 km/h) 0 mm0 mm 0 cm 0 min 0 W/m²
02:42 16.4 °C 7.9 °C 57 % 5 km/h (9 km/h) 0 mm0 mm 0 cm 0 min 0 W/m²
02:36 16.1 °C 7.6 °C 57 % 5 km/h (9 km/h) 0 mm0 mm 0 cm 0 min 0 W/m²
02:30 16.3 °C 7.8 °C 57 % 4 km/h (9 km/h) 0 mm0 mm 0 cm 0 min 0 W/m²
02:24 16.6 °C 8 °C 57 % 3 km/h (8 km/h) 0 mm0 mm 0 cm 0 min 0 W/m²
02:18 16.5 °C 8.2 °C 58 % 6 km/h (10 km/h) 0 mm0 mm 0 cm 0 min 0 W/m²
02:12 16.4 °C 8.1 °C 58 % 8 km/h (11 km/h) 0 mm0 mm 0 cm 0 min 0 W/m²
02:06 16.2 °C 7.7 °C 57 % 8 km/h (13 km/h) 0 mm0 mm 0 cm 0 min 0 W/m²
02:00 16.3 °C 7.5 °C 56 % 8 km/h (13 km/h) 0 mm0 mm 0 cm 0 min 0 W/m²
01:54 16.6 °C 7.5 °C 55 % 8 km/h (13 km/h) 0 mm0 mm 0 cm 0 min 0 W/m²
01:48 16.7 °C 7.6 °C 55 % 7 km/h (10 km/h) 0 mm0 mm 0 cm 0 min 0 W/m²
01:42 16.6 °C 7.5 °C 55 % 7 km/h (11 km/h) 0 mm0 mm 0 cm 0 min 0 W/m²
01:36 16.7 °C 7.6 °C 55 % 7 km/h (11 km/h) 0 mm0 mm 0 cm 0 min 0 W/m²
01:30 16.6 °C 7.5 °C 55 % 7 km/h (11 km/h) 0 mm0 mm 0 cm 0 min 0 W/m²
01:24 16.6 °C 7.2 °C 54 % 7 km/h (11 km/h) 0 mm0 mm 0 cm 0 min 0 W/m²
01:18 16.8 °C 7.4 °C 54 % 6 km/h (10 km/h) 0 mm0 mm 0 cm 0 min 0 W/m²
01:12 16.9 °C 7.5 °C 54 % 3 km/h (6 km/h) 0 mm0 mm 0 cm 0 min 0 W/m²
01:06 17 °C 7.6 °C 54 % 2 km/h (6 km/h) 0 mm0 mm 0 cm 0 min 0 W/m²
01:00 17.1 °C 7.7 °C 54 % 4 km/h (9 km/h) 0 mm0 mm 0 cm 0 min 0 W/m²
00:54 16.9 °C 7.5 °C 54 % 5 km/h (9 km/h) 0 mm0 mm 0 cm 0 min 0 W/m²
00:48 16.8 °C 7.4 °C 54 % 5 km/h (9 km/h) 0 mm0 mm 0 cm 0 min 0 W/m²
00:42 16.7 °C 7.3 °C 54 % 3 km/h (7 km/h) 0 mm0 mm 0 cm 0 min 0 W/m²
00:36 16.7 °C 7.3 °C 54 % 3 km/h (8 km/h) 0 mm0 mm 0 cm 0 min 0 W/m²
00:30 16.6 °C 7.2 °C 54 % 6 km/h (9 km/h) 0 mm0 mm 0 cm 0 min 0 W/m²
00:24 16.3 °C 6.7 °C 53 % 6 km/h (9 km/h) 0 mm0 mm 0 cm 0 min 0 W/m²
00:18 16.8 °C 6.9 °C 52 % 5 km/h (9 km/h) 0 mm0 mm 0 cm 0 min 0 W/m²
00:12 16.7 °C 6.5 °C 51 % 5 km/h (9 km/h) 0 mm0 mm 0 cm 0 min 0 W/m²
00:06 16.8 °C 6.3 °C 50 % 3 km/h (9 km/h) 0 mm0 mm 0 cm 0 min 0 W/m²
00:00 16.6 °C 5.8 °C 49 % 2 km/h (6 km/h) 0 mm0 mm 0 cm 0 min 0 W/m²

Données via Météo-France

Relevés météo à Chastreix

Cette page rassemble les observations de la station de Chastreix : température, humidité, vent, précipitations et pression atmosphérique. Les graphiques facilitent le suivi de la journée, tandis que le tableau donne accès aux mesures horaires et infra-horaires disponibles.

Pour replacer ces mesures dans leur contexte, consultez la climatologie de Chastreix ainsi que ses normales et records. Retrouvez aussi la carte des observations météo en temps réel.